Cutten, California
Current Conditions -  °F | °C
As of 7:53 PM on Wednesday 26 Nov 2014 (Local Time) from KACV Reporting Station
Clear Clear  
Wind Chill: 55°   Ceiling: Unl
Heat Index: 55°   Visibility: 10mi
Dew Point: 52°   Wind: 3mph
Humidity: 89%   Direction: 350°N
Pressure: 30.14"   Gusts: NA
Location:  40.77°N, 124.14°W
Report Text: KACV 270353Z AUTO 35003KT 10SM CLR 13/11 A3014 RMK AO2 SLP211 T01280111
Loading
Personal Weather Stations






























Interactive Weather Map New forecast layout! Learn more

10-Day Weather Forecast

Advertisements
Track Severe Weather on mobile